createdAt,value
2019-01-23T00:00:20.063Z,1002.84
2019-01-23T00:01:20.047Z,1002.82
2019-01-23T00:02:20.014Z,1002.78
2019-01-23T00:03:20.000Z,1002.79
2019-01-23T00:04:20.010Z,1002.80
2019-01-23T00:05:19.972Z,1002.78
2019-01-23T00:06:19.970Z,1002.75
2019-01-23T00:07:19.956Z,1002.77
2019-01-23T00:08:19.954Z,1002.74
2019-01-23T00:09:19.949Z,1002.71
2019-01-23T00:10:19.980Z,1002.72
2019-01-23T00:11:19.914Z,1002.68
2019-01-23T00:12:19.901Z,1002.64
2019-01-23T00:13:19.894Z,1002.66
2019-01-23T00:14:19.882Z,1002.67
2019-01-23T00:15:19.887Z,1002.65
2019-01-23T00:16:19.862Z,1002.62
2019-01-23T00:17:19.844Z,1002.64
2019-01-23T00:18:19.836Z,1002.63
2019-01-23T00:19:19.826Z,1002.62
2019-01-23T00:20:19.830Z,1002.64
2019-01-23T00:21:19.806Z,1002.59
2019-01-23T00:22:19.803Z,1002.59
2019-01-23T00:23:19.784Z,1002.59
2019-01-23T00:24:19.766Z,1002.57
2019-01-23T00:25:19.780Z,1002.57
2019-01-23T00:26:19.747Z,1002.56
2019-01-23T00:27:19.756Z,1002.57
2019-01-23T00:28:19.732Z,1002.60
2019-01-23T00:29:19.723Z,1002.58
2019-01-23T00:30:19.769Z,1002.55
2019-01-23T00:31:19.694Z,1002.57
2019-01-23T00:32:19.680Z,1002.54
2019-01-23T00:33:19.670Z,1002.58
2019-01-23T00:34:19.734Z,1002.57
2019-01-23T00:35:19.686Z,1002.55
2019-01-23T00:36:19.640Z,1002.57
2019-01-23T00:37:20.528Z,1002.55
2019-01-23T00:38:19.837Z,1002.53
2019-01-23T00:39:19.689Z,1002.53
2019-01-23T00:40:19.600Z,1002.57
2019-01-23T00:41:19.619Z,1002.54
2019-01-23T00:42:19.582Z,1002.46
2019-01-23T00:43:19.577Z,1002.46
2019-01-23T00:44:19.556Z,1002.46
2019-01-23T00:45:19.545Z,1002.50
2019-01-23T00:46:19.558Z,1002.47
2019-01-23T00:47:19.530Z,1002.44
2019-01-23T00:48:19.515Z,1002.42
2019-01-23T00:49:19.516Z,1002.46
2019-01-23T00:50:19.488Z,1002.48
2019-01-23T00:51:19.518Z,1002.45
2019-01-23T00:52:19.498Z,1002.50
2019-01-23T00:53:19.452Z,1002.44
2019-01-23T00:54:19.447Z,1002.44
2019-01-23T00:55:19.442Z,1002.38
2019-01-23T00:56:19.437Z,1002.37
2019-01-23T00:57:19.412Z,1002.37
2019-01-23T00:58:19.408Z,1002.36
2019-01-23T00:59:19.398Z,1002.39
2019-01-23T01:00:19.408Z,1002.31
2019-01-23T01:01:19.380Z,1002.39
2019-01-23T01:02:19.354Z,1002.32
2019-01-23T01:03:19.364Z,1002.31
2019-01-23T01:04:19.340Z,1002.34
2019-01-23T01:05:19.323Z,1002.31
2019-01-23T01:06:19.330Z,1002.30
2019-01-23T01:07:19.307Z,1002.28
2019-01-23T01:08:19.296Z,1002.31
2019-01-23T01:09:19.284Z,1002.25
2019-01-23T01:10:19.270Z,1002.25
2019-01-23T01:11:19.276Z,1002.27
2019-01-23T01:12:19.253Z,1002.27
2019-01-23T01:13:19.239Z,1002.27
2019-01-23T01:14:19.251Z,1002.25
2019-01-23T01:15:19.222Z,1002.23
2019-01-23T01:16:19.221Z,1002.20
2019-01-23T01:17:19.224Z,1002.17
2019-01-23T01:18:19.187Z,1002.19
2019-01-23T01:19:19.176Z,1002.19
2019-01-23T01:20:19.164Z,1002.09
2019-01-23T01:21:19.174Z,1002.11
2019-01-23T01:22:19.144Z,1002.09
2019-01-23T01:23:19.129Z,1002.05
2019-01-23T01:24:19.122Z,1002.13
2019-01-23T01:25:19.112Z,1002.10
2019-01-23T01:26:19.105Z,1002.14
2019-01-23T01:27:19.104Z,1002.06
2019-01-23T01:28:19.080Z,1002.04
2019-01-23T01:29:19.135Z,1002.03
2019-01-23T01:30:19.052Z,1002.05
2019-01-23T01:31:19.055Z,1002.03
2019-01-23T01:32:19.464Z,1002.05
2019-01-23T01:33:19.029Z,1002.05
2019-01-23T01:34:19.041Z,1002.04
2019-01-23T01:35:18.998Z,1002.08
2019-01-23T01:36:18.984Z,1002.06
2019-01-23T01:37:18.996Z,1002.04
2019-01-23T01:38:18.968Z,1002.08
2019-01-23T01:39:18.967Z,1002.11
2019-01-23T01:40:18.946Z,1002.05
2019-01-23T01:41:18.939Z,1002.09
2019-01-23T01:42:18.941Z,1002.10
2019-01-23T01:43:18.996Z,1002.05
2019-01-23T01:44:18.897Z,1002.07
2019-01-23T01:45:18.892Z,1002.05
2019-01-23T01:46:18.876Z,1002.06
2019-01-23T01:47:18.882Z,1002.01
2019-01-23T01:48:18.869Z,1001.96
2019-01-23T01:49:18.845Z,1001.99
2019-01-23T01:50:18.833Z,1002.03
2019-01-23T01:51:18.827Z,1002.01
2019-01-23T01:52:18.829Z,1002.01
2019-01-23T01:53:18.800Z,1001.97
2019-01-23T01:54:18.792Z,1001.95
2019-01-23T01:55:18.794Z,1001.97
2019-01-23T01:56:18.777Z,1001.94
2019-01-23T01:57:18.782Z,1001.97
2019-01-23T01:58:18.751Z,1002.02
2019-01-23T01:59:18.741Z,1001.97
2019-01-23T02:00:18.728Z,1002.01
2019-01-23T02:01:18.717Z,1001.95
2019-01-23T02:02:18.702Z,1001.97
2019-01-23T02:03:18.708Z,1001.94
2019-01-23T02:04:18.685Z,1001.94
2019-01-23T02:05:18.673Z,1001.92
2019-01-23T02:06:18.672Z,1001.92
2019-01-23T02:07:18.648Z,1001.88
2019-01-23T02:08:18.651Z,1001.82
2019-01-23T02:09:18.638Z,1001.83
2019-01-23T02:10:18.618Z,1001.80
2019-01-23T02:11:18.636Z,1001.87
2019-01-23T02:12:18.604Z,1001.83
2019-01-23T02:13:18.629Z,1001.84
2019-01-23T02:14:18.579Z,1001.74
2019-01-23T02:15:18.566Z,1001.79
2019-01-23T02:16:18.555Z,1001.78
2019-01-23T02:17:18.548Z,1001.78
2019-01-23T02:18:18.537Z,1001.76
2019-01-23T02:19:18.548Z,1001.74
2019-01-23T02:20:18.512Z,1001.77
2019-01-23T02:21:18.498Z,1001.74
2019-01-23T02:22:18.484Z,1001.76
2019-01-23T02:23:18.498Z,1001.78
2019-01-23T02:24:18.495Z,1001.78
2019-01-23T02:25:18.454Z,1001.76
2019-01-23T02:26:19.317Z,1001.78
2019-01-23T02:27:18.435Z,1001.75
2019-01-23T02:28:18.435Z,1001.78
2019-01-23T02:29:18.432Z,1001.76
2019-01-23T02:30:18.453Z,1001.76
2019-01-23T02:31:18.391Z,1001.72
2019-01-23T02:32:18.381Z,1001.75
2019-01-23T02:33:18.401Z,1001.70
2019-01-23T02:34:18.358Z,1001.66
2019-01-23T02:35:18.353Z,1001.66
2019-01-23T02:36:18.336Z,1001.65
2019-01-23T02:37:18.331Z,1001.62
2019-01-23T02:38:18.332Z,1001.64
2019-01-23T02:39:18.298Z,1001.59
2019-01-23T02:40:18.289Z,1001.61
2019-01-23T02:41:18.283Z,1001.62
2019-01-23T02:42:18.268Z,1001.63
2019-01-23T02:43:18.305Z,1001.64
2019-01-23T02:44:18.271Z,1001.67
2019-01-23T02:45:18.234Z,1001.69
2019-01-23T02:46:18.233Z,1001.60
2019-01-23T02:47:18.217Z,1001.61
2019-01-23T02:48:18.208Z,1001.65
2019-01-23T02:49:18.212Z,1001.61
2019-01-23T02:50:18.183Z,1001.60
2019-01-23T02:51:18.174Z,1001.64
2019-01-23T02:52:18.166Z,1001.55
2019-01-23T02:53:18.150Z,1001.64
2019-01-23T02:54:18.162Z,1001.62
2019-01-23T02:55:18.144Z,1001.63
2019-01-23T02:56:18.133Z,1001.61
2019-01-23T02:57:18.110Z,1001.61
2019-01-23T02:58:18.101Z,1001.67
2019-01-23T02:59:18.174Z,1001.58
2019-01-23T03:00:18.078Z,1001.56
2019-01-23T03:01:18.074Z,1001.60
2019-01-23T03:02:18.051Z,1001.58
2019-01-23T03:03:18.060Z,1001.54
2019-01-23T03:04:18.049Z,1001.59
2019-01-23T03:05:18.026Z,1001.57
2019-01-23T03:06:18.009Z,1001.55
2019-01-23T03:07:18.019Z,1001.54
2019-01-23T03:08:17.983Z,1001.52
2019-01-23T03:09:17.991Z,1001.53
2019-01-23T03:10:17.963Z,1001.54
2019-01-23T03:11:17.953Z,1001.55
2019-01-23T03:12:17.942Z,1001.51
2019-01-23T03:13:17.939Z,1001.50
2019-01-23T03:14:17.945Z,1001.55
2019-01-23T03:15:17.912Z,1001.52
2019-01-23T03:16:17.910Z,1001.45
2019-01-23T03:17:17.890Z,1001.40
2019-01-23T03:18:17.878Z,1001.48
2019-01-23T03:19:17.887Z,1001.49
2019-01-23T03:20:17.855Z,1001.46
2019-01-23T03:21:17.844Z,1001.44
2019-01-23T03:22:17.837Z,1001.47
2019-01-23T03:23:17.824Z,1001.40
2019-01-23T03:24:17.831Z,1001.50
2019-01-23T03:25:17.801Z,1001.46
2019-01-23T03:26:17.792Z,1001.42
2019-01-23T03:27:17.783Z,1001.47
2019-01-23T03:28:17.767Z,1001.45
2019-01-23T03:29:24.486Z,1001.48
2019-01-23T03:30:18.769Z,1001.48
2019-01-23T03:31:17.736Z,1001.45
2019-01-23T03:32:17.732Z,1001.44
2019-01-23T03:33:17.724Z,1001.46
2019-01-23T03:34:17.724Z,1001.50
2019-01-23T03:35:17.693Z,1001.50
2019-01-23T03:36:17.682Z,1001.48
2019-01-23T03:37:17.671Z,1001.46
2019-01-23T03:38:17.667Z,1001.47
2019-01-23T03:39:17.681Z,1001.43
2019-01-23T03:40:17.647Z,1001.43
2019-01-23T03:41:17.623Z,1001.46
2019-01-23T03:42:17.626Z,1001.42
2019-01-23T03:43:17.605Z,1001.41
2019-01-23T03:44:17.629Z,1001.42
2019-01-23T03:45:17.602Z,1001.41
2019-01-23T03:46:17.571Z,1001.36
2019-01-23T03:47:17.563Z,1001.39
2019-01-23T03:48:17.552Z,1001.43
2019-01-23T03:49:17.539Z,1001.39
2019-01-23T03:50:17.551Z,1001.41
2019-01-23T03:51:17.528Z,1001.47
2019-01-23T03:52:17.505Z,1001.45
2019-01-23T03:53:17.498Z,1001.48
2019-01-23T03:54:17.485Z,1001.46
2019-01-23T03:55:17.495Z,1001.50
2019-01-23T03:56:17.468Z,1001.47
2019-01-23T03:57:17.455Z,1001.47
2019-01-23T03:58:17.438Z,1001.44
2019-01-23T03:59:17.430Z,1001.46
2019-01-23T04:00:18.430Z,1001.48
2019-01-23T04:01:17.407Z,1001.51
2019-01-23T04:02:17.404Z,1001.54
2019-01-23T04:03:17.393Z,1001.53
2019-01-23T04:04:17.377Z,1001.50
2019-01-23T04:05:17.378Z,1001.49
2019-01-23T04:06:17.355Z,1001.51
2019-01-23T04:07:17.346Z,1001.48
2019-01-23T04:08:17.335Z,1001.45
2019-01-23T04:09:17.322Z,1001.46
2019-01-23T04:10:17.321Z,1001.43
2019-01-23T04:11:17.298Z,1001.43
2019-01-23T04:12:17.285Z,1001.39
2019-01-23T04:13:17.282Z,1001.41
2019-01-23T04:14:17.291Z,1001.44
2019-01-23T04:15:17.273Z,1001.45
2019-01-23T04:16:17.243Z,1001.43
2019-01-23T04:17:17.240Z,1001.41
2019-01-23T04:18:17.220Z,1001.37
2019-01-23T04:19:17.217Z,1001.45
2019-01-23T04:20:17.225Z,1001.42
2019-01-23T04:21:17.196Z,1001.43
2019-01-23T04:22:17.180Z,1001.46
2019-01-23T04:23:17.184Z,1001.47
2019-01-23T04:24:17.165Z,1001.49
2019-01-23T04:25:17.172Z,1001.50
2019-01-23T04:26:17.132Z,1001.53
2019-01-23T04:27:17.123Z,1001.47
2019-01-23T04:28:17.110Z,1001.53
2019-01-23T04:29:17.100Z,1001.51
2019-01-23T04:30:17.090Z,1001.54
2019-01-23T04:31:17.103Z,1001.54
2019-01-23T04:32:17.072Z,1001.47
2019-01-23T04:33:17.054Z,1001.49
2019-01-23T04:34:17.052Z,1001.46
2019-01-23T04:35:17.037Z,1001.46
2019-01-23T04:36:17.045Z,1001.41
2019-01-23T04:37:17.016Z,1001.40
2019-01-23T04:38:17.009Z,1001.39
2019-01-23T04:39:16.991Z,1001.40
2019-01-23T04:40:16.984Z,1001.35
2019-01-23T04:41:16.986Z,1001.44
2019-01-23T04:42:16.969Z,1001.47
2019-01-23T04:43:16.950Z,1001.42
2019-01-23T04:44:16.938Z,1001.43
2019-01-23T04:45:16.927Z,1001.41
2019-01-23T04:46:16.932Z,1001.46
2019-01-23T04:47:16.914Z,1001.46
2019-01-23T04:48:16.906Z,1001.42
2019-01-23T04:49:16.893Z,1001.44
2019-01-23T04:50:16.875Z,1001.46
2019-01-23T04:51:17.018Z,1001.48
2019-01-23T04:52:16.854Z,1001.47
2019-01-23T04:53:16.852Z,1001.45
2019-01-23T04:54:16.843Z,1001.45
2019-01-23T04:55:16.818Z,1001.43
2019-01-23T04:56:16.817Z,1001.46
2019-01-23T04:57:16.800Z,1001.44
2019-01-23T04:58:16.790Z,1001.46
2019-01-23T04:59:16.786Z,1001.40
2019-01-23T05:00:16.767Z,1001.48
2019-01-23T05:01:16.804Z,1001.39
2019-01-23T05:02:16.745Z,1001.43
2019-01-23T05:03:16.737Z,1001.46
2019-01-23T05:04:16.728Z,1001.43
2019-01-23T05:05:16.721Z,1001.40
2019-01-23T05:06:16.720Z,1001.40
2019-01-23T05:07:16.700Z,1001.37
2019-01-23T05:08:16.674Z,1001.39
2019-01-23T05:09:16.668Z,1001.40
2019-01-23T05:10:16.661Z,1001.36
2019-01-23T05:11:16.644Z,1001.36
2019-01-23T05:12:16.658Z,1001.38
2019-01-23T05:13:16.624Z,1001.33
2019-01-23T05:14:16.641Z,1001.28
2019-01-23T05:15:16.623Z,1001.23
2019-01-23T05:16:16.603Z,1001.24
2019-01-23T05:17:16.599Z,1001.26
2019-01-23T05:18:16.568Z,1001.26
2019-01-23T05:19:16.557Z,1001.25
2019-01-23T05:20:16.563Z,1001.23
2019-01-23T05:21:16.536Z,1001.27
2019-01-23T05:22:16.543Z,1001.23
2019-01-23T05:23:16.518Z,1001.17
2019-01-23T05:24:16.503Z,1001.19
2019-01-23T05:25:16.519Z,1001.22
2019-01-23T05:26:16.496Z,1001.23
2019-01-23T05:27:16.502Z,1001.24
2019-01-23T05:28:16.467Z,1001.24
2019-01-23T05:29:16.457Z,1001.28
2019-01-23T05:30:16.445Z,1001.22
2019-01-23T05:31:16.437Z,1001.26
2019-01-23T05:32:16.444Z,1001.25
2019-01-23T05:33:16.412Z,1001.30
2019-01-23T05:34:16.409Z,1001.28
2019-01-23T05:35:16.384Z,1001.31
2019-01-23T05:36:16.373Z,1001.31
2019-01-23T05:37:16.395Z,1001.26
2019-01-23T05:38:16.351Z,1001.33
2019-01-23T05:39:16.350Z,1001.27
2019-01-23T05:40:16.345Z,1001.25
2019-01-23T05:41:16.316Z,1001.27
2019-01-23T05:42:16.328Z,1001.28
2019-01-23T05:43:16.313Z,1001.35
2019-01-23T05:44:16.292Z,1001.31
2019-01-23T05:45:16.295Z,1001.29
2019-01-23T05:46:16.272Z,1001.28
2019-01-23T05:47:16.268Z,1001.29
2019-01-23T05:48:16.271Z,1001.26
2019-01-23T05:49:16.249Z,1001.31
2019-01-23T05:50:16.224Z,1001.29
2019-01-23T05:51:16.220Z,1001.31
2019-01-23T05:52:16.198Z,1001.30
2019-01-23T05:53:16.242Z,1001.30
2019-01-23T05:54:16.182Z,1001.28
2019-01-23T05:55:16.173Z,1001.31
2019-01-23T05:56:16.167Z,1001.32
2019-01-23T05:57:16.163Z,1001.30
2019-01-23T05:58:16.170Z,1001.30
2019-01-23T05:59:16.129Z,1001.27
2019-01-23T06:00:16.118Z,1001.29
2019-01-23T06:01:16.113Z,1001.28
2019-01-23T06:02:16.102Z,1001.28
2019-01-23T06:03:16.103Z,1001.23
2019-01-23T06:04:16.161Z,1001.28
2019-01-23T06:05:16.069Z,1001.28
2019-01-23T06:06:16.046Z,1001.21
2019-01-23T06:07:16.052Z,1001.23
2019-01-23T06:08:16.061Z,1001.22
2019-01-23T06:09:16.042Z,1001.23
2019-01-23T06:10:16.034Z,1001.23
2019-01-23T06:11:15.996Z,1001.17
2019-01-23T06:12:16.004Z,1001.20
2019-01-23T06:13:16.004Z,1001.20
2019-01-23T06:14:15.960Z,1001.16
2019-01-23T06:15:16.030Z,1001.15
2019-01-23T06:16:15.952Z,1001.18
2019-01-23T06:17:15.942Z,1001.15
2019-01-23T06:18:15.977Z,1001.17
2019-01-23T06:19:15.907Z,1001.09
2019-01-23T06:20:15.937Z,1001.10
2019-01-23T06:21:15.898Z,1001.08
2019-01-23T06:22:15.953Z,1001.12
2019-01-23T06:23:15.918Z,1001.14
2019-01-23T06:24:15.856Z,1001.20
2019-01-23T06:25:15.856Z,1001.21
2019-01-23T06:26:15.834Z,1001.15
2019-01-23T06:27:15.828Z,1001.21
2019-01-23T06:28:15.833Z,1001.19
2019-01-23T06:29:15.801Z,1001.22
2019-01-23T06:30:15.797Z,1001.21
2019-01-23T06:31:15.803Z,1001.19
2019-01-23T06:32:15.772Z,1001.24
2019-01-23T06:33:15.783Z,1001.25
2019-01-23T06:34:15.742Z,1001.21
2019-01-23T06:35:15.973Z,1001.17
2019-01-23T06:36:15.722Z,1001.20
2019-01-23T06:37:15.734Z,1001.18
2019-01-23T06:38:15.739Z,1001.19
2019-01-23T06:39:15.706Z,1001.14
2019-01-23T06:40:15.676Z,1001.22
2019-01-23T06:41:15.676Z,1001.17
2019-01-23T06:42:15.676Z,1001.20
2019-01-23T06:43:15.650Z,1001.22
2019-01-23T06:44:15.690Z,1001.20
2019-01-23T06:45:15.638Z,1001.20
2019-01-23T06:46:15.624Z,1001.23
2019-01-23T06:47:15.606Z,1001.30
2019-01-23T06:48:15.598Z,1001.27
2019-01-23T06:49:15.724Z,1001.22
2019-01-23T06:50:15.568Z,1001.24
2019-01-23T06:51:15.560Z,1001.26
2019-01-23T06:52:15.547Z,1001.26
2019-01-23T06:53:15.547Z,1001.26
2019-01-23T06:54:15.564Z,1001.28
2019-01-23T06:55:15.518Z,1001.23
2019-01-23T06:56:15.505Z,1001.23
2019-01-23T06:57:15.496Z,1001.24
2019-01-23T06:58:15.479Z,1001.23
2019-01-23T06:59:15.495Z,1001.25
2019-01-23T07:00:17.335Z,1001.23
2019-01-23T07:01:15.458Z,1001.30
2019-01-23T07:02:15.444Z,1001.23
2019-01-23T07:03:15.456Z,1001.26
2019-01-23T07:04:15.437Z,1001.21
2019-01-23T07:05:15.428Z,1001.19
2019-01-23T07:06:15.398Z,1001.23
2019-01-23T07:07:15.402Z,1001.22
2019-01-23T07:08:15.378Z,1001.23
2019-01-23T07:09:15.362Z,1001.21
2019-01-23T07:10:15.368Z,1001.21
2019-01-23T07:11:15.343Z,1001.24
2019-01-23T07:12:15.330Z,1001.20
2019-01-23T07:13:15.319Z,1001.16
2019-01-23T07:14:15.304Z,1001.17
2019-01-23T07:15:15.317Z,1001.18
2019-01-23T07:16:15.300Z,1001.18
2019-01-23T07:17:15.286Z,1001.16
2019-01-23T07:18:15.272Z,1001.19
2019-01-23T07:19:15.257Z,1001.17
2019-01-23T07:20:15.261Z,1001.20
2019-01-23T07:21:15.235Z,1001.20
2019-01-23T07:22:15.234Z,1001.21
2019-01-23T07:23:15.226Z,1001.24
2019-01-23T07:24:15.224Z,1001.25
2019-01-23T07:25:15.214Z,1001.25
2019-01-23T07:26:15.176Z,1001.20
2019-01-23T07:27:15.171Z,1001.25
2019-01-23T07:28:15.177Z,1001.25
2019-01-23T07:29:15.197Z,1001.18
2019-01-23T07:30:15.162Z,1001.21
2019-01-23T07:31:15.119Z,1001.15
2019-01-23T07:32:15.110Z,1001.10
2019-01-23T07:33:15.111Z,1001.16
2019-01-23T07:34:15.110Z,1001.12
2019-01-23T07:35:15.110Z,1001.15
2019-01-23T07:36:15.068Z,1001.15
2019-01-23T07:37:15.073Z,1001.17
2019-01-23T07:38:15.048Z,1001.21
2019-01-23T07:39:15.041Z,1001.14
2019-01-23T07:40:15.061Z,1001.16
2019-01-23T07:41:15.014Z,1001.13
2019-01-23T07:42:14.996Z,1001.13
2019-01-23T07:43:14.990Z,1001.17
2019-01-23T07:44:15.054Z,1001.17
2019-01-23T07:45:14.986Z,1001.18
2019-01-23T07:46:14.981Z,1001.14
2019-01-23T07:47:14.956Z,1001.15
2019-01-23T07:48:14.942Z,1001.17
2019-01-23T07:49:14.925Z,1001.18
2019-01-23T07:50:14.910Z,1001.22
2019-01-23T07:51:14.931Z,1001.18
2019-01-23T07:52:14.900Z,1001.18
2019-01-23T07:53:14.893Z,1001.14
2019-01-23T07:54:14.872Z,1001.18
2019-01-23T07:55:14.863Z,1001.19
2019-01-23T07:56:14.865Z,1001.16
2019-01-23T07:57:14.840Z,1001.15
2019-01-23T07:58:14.828Z,1001.12
2019-01-23T07:59:14.818Z,1001.15
2019-01-23T08:00:14.814Z,1001.13
2019-01-23T08:01:14.813Z,1001.10
2019-01-23T08:02:14.792Z,1001.13
2019-01-23T08:03:14.778Z,1001.11
2019-01-23T08:04:14.766Z,1001.19
2019-01-23T08:05:19.427Z,1001.16
2019-01-23T08:06:15.760Z,1001.15
2019-01-23T08:07:14.732Z,1001.17
2019-01-23T08:08:14.752Z,1001.11
2019-01-23T08:09:14.721Z,1001.20
2019-01-23T08:10:14.718Z,1001.23
2019-01-23T08:11:14.727Z,1001.27
2019-01-23T08:12:14.684Z,1001.24
2019-01-23T08:13:14.730Z,1001.25
2019-01-23T08:14:14.696Z,1001.21
2019-01-23T08:15:14.671Z,1001.22
2019-01-23T08:16:17.382Z,1001.19
2019-01-23T08:17:15.879Z,1001.13
2019-01-23T08:18:14.610Z,1001.20
2019-01-23T08:19:14.626Z,1001.17
2019-01-23T08:20:14.619Z,1001.09
2019-01-23T08:21:14.627Z,1001.05
2019-01-23T08:22:14.586Z,1001.02
2019-01-23T08:23:14.565Z,1001.04
2019-01-23T08:24:14.553Z,1001.02
2019-01-23T08:25:14.556Z,1001.03
2019-01-23T08:26:14.577Z,1001.08
2019-01-23T08:27:14.533Z,1001.08
2019-01-23T08:28:14.524Z,1001.02
2019-01-23T08:29:14.514Z,1001.07
2019-01-23T08:30:14.487Z,1001.05
2019-01-23T08:31:14.505Z,1001.05
2019-01-23T08:32:14.486Z,1001.04
2019-01-23T08:33:14.500Z,1001.01
2019-01-23T08:34:14.454Z,1001.04
2019-01-23T08:35:14.430Z,1001.03
2019-01-23T08:36:14.439Z,1001.02
2019-01-23T08:37:14.436Z,1001.01
2019-01-23T08:38:14.406Z,1001.01
2019-01-23T08:39:14.407Z,1000.94
2019-01-23T08:40:14.381Z,1000.96
2019-01-23T08:41:14.412Z,1000.96
2019-01-23T08:42:14.441Z,1000.98
2019-01-23T08:43:14.365Z,1000.99
2019-01-23T08:44:14.342Z,1000.96
2019-01-23T08:45:14.337Z,1000.96
2019-01-23T08:46:14.307Z,1000.99
2019-01-23T08:47:14.347Z,1000.94
2019-01-23T08:48:14.305Z,1000.96
2019-01-23T08:49:14.279Z,1000.93
2019-01-23T08:50:14.281Z,1000.97
2019-01-23T08:51:14.275Z,1000.96
2019-01-23T08:52:14.288Z,1000.96
2019-01-23T08:53:14.253Z,1000.95
2019-01-23T08:54:14.230Z,1000.97
2019-01-23T08:55:14.224Z,1000.94
2019-01-23T08:56:14.209Z,1000.94
2019-01-23T08:57:14.286Z,1000.93
2019-01-23T08:58:14.184Z,1000.92
2019-01-23T08:59:14.174Z,1000.90
2019-01-23T09:00:14.170Z,1000.91
2019-01-23T09:01:14.165Z,1000.95
2019-01-23T09:02:14.158Z,1000.97
2019-01-23T09:03:14.121Z,1000.97
2019-01-23T09:04:14.120Z,1000.96
2019-01-23T09:05:14.119Z,1000.98
2019-01-23T09:06:14.104Z,1001.02
2019-01-23T09:07:14.137Z,1000.97
2019-01-23T09:08:14.074Z,1001.01
2019-01-23T09:09:14.065Z,1000.97
2019-01-23T09:10:14.068Z,1000.95
2019-01-23T09:11:14.044Z,1001.01
2019-01-23T09:12:14.061Z,1001.02
2019-01-23T09:13:14.028Z,1000.98
2019-01-23T09:14:14.012Z,1000.99
2019-01-23T09:15:14.024Z,1000.98
2019-01-23T09:16:13.992Z,1000.96
2019-01-23T09:17:14.002Z,1000.95
2019-01-23T09:18:13.960Z,1000.98
2019-01-23T09:19:13.980Z,1000.94
2019-01-23T09:20:13.938Z,1000.87
2019-01-23T09:21:13.931Z,1000.89
2019-01-23T09:22:13.943Z,1000.92
2019-01-23T09:23:13.912Z,1000.93
2019-01-23T09:24:13.918Z,1000.93
2019-01-23T09:25:13.895Z,1000.98
2019-01-23T09:26:13.876Z,1000.91
2019-01-23T09:27:13.884Z,1000.90
2019-01-23T09:28:13.855Z,1000.96
2019-01-23T09:29:13.850Z,1000.96
2019-01-23T09:30:13.835Z,1001.00
2019-01-23T09:31:13.831Z,1000.97
2019-01-23T09:32:13.834Z,1000.97
2019-01-23T09:33:13.806Z,1001.00
2019-01-23T09:34:13.781Z,1001.00
2019-01-23T09:35:13.810Z,1000.99
2019-01-23T09:36:13.781Z,1001.00
2019-01-23T09:37:13.808Z,1000.99
2019-01-23T09:38:13.751Z,1000.95
2019-01-23T09:39:13.748Z,1000.97
2019-01-23T09:40:13.730Z,1001.02
2019-01-23T09:41:13.710Z,1000.95
2019-01-23T09:42:13.712Z,1000.94
2019-01-23T09:43:13.706Z,1000.97
2019-01-23T09:44:13.690Z,1000.93
2019-01-23T09:45:13.685Z,1000.91
2019-01-23T09:46:13.652Z,1000.96
2019-01-23T09:47:13.646Z,1000.95
2019-01-23T09:48:13.646Z,1000.94
2019-01-23T09:49:13.626Z,1000.95
2019-01-23T09:50:13.624Z,1000.99
2019-01-23T09:51:13.594Z,1000.97
2019-01-23T09:52:13.584Z,1000.96
2019-01-23T09:53:13.592Z,1000.94
2019-01-23T09:54:13.563Z,1000.93
2019-01-23T09:55:13.557Z,1000.92
2019-01-23T09:56:13.552Z,1000.96
2019-01-23T09:57:13.532Z,1000.95
2019-01-23T09:58:13.657Z,1000.96
2019-01-23T09:59:13.513Z,1000.96
2019-01-23T10:00:13.498Z,1000.95
2019-01-23T10:01:13.486Z,1000.96
2019-01-23T10:02:13.503Z,1000.97
2019-01-23T10:03:13.498Z,1001.02
2019-01-23T10:04:13.467Z,1000.98
2019-01-23T10:05:13.452Z,1000.95
2019-01-23T10:06:13.429Z,1000.99
2019-01-23T10:07:13.437Z,1000.94
2019-01-23T10:08:13.445Z,1000.95
2019-01-23T10:09:13.404Z,1000.97
2019-01-23T10:10:13.390Z,1000.98
2019-01-23T10:11:13.377Z,1000.94
2019-01-23T10:12:13.391Z,1000.98
2019-01-23T10:13:13.396Z,1000.97
2019-01-23T10:14:13.355Z,1000.92
2019-01-23T10:15:13.351Z,1000.93
2019-01-23T10:16:13.332Z,1000.95
2019-01-23T10:17:13.321Z,1000.93
2019-01-23T10:18:13.303Z,1000.96
2019-01-23T10:19:13.311Z,1001.00
2019-01-23T10:20:13.292Z,1000.96
2019-01-23T10:21:13.272Z,1000.96
2019-01-23T10:22:13.264Z,1001.01
2019-01-23T10:23:13.258Z,1000.94
2019-01-23T10:24:13.269Z,1001.03
2019-01-23T10:25:13.218Z,1000.96
2019-01-23T10:26:13.220Z,1000.97
2019-01-23T10:27:13.212Z,1001.00
2019-01-23T10:28:13.194Z,1000.95
2019-01-23T10:29:13.219Z,1001.02
2019-01-23T10:30:13.157Z,1000.96
2019-01-23T10:31:13.155Z,1000.95
2019-01-23T10:32:13.166Z,1000.97
2019-01-23T10:33:13.140Z,1000.97
2019-01-23T10:34:13.170Z,1001.04
2019-01-23T10:35:13.135Z,1001.00
2019-01-23T10:36:13.095Z,1001.01
2019-01-23T10:37:19.368Z,1001.02
2019-01-23T10:38:14.096Z,1000.99
2019-01-23T10:39:13.108Z,1001.02
2019-01-23T10:40:13.068Z,1001.01
2019-01-23T10:41:13.078Z,1001.00
2019-01-23T10:42:13.036Z,1001.00
2019-01-23T10:43:13.024Z,1000.98
2019-01-23T10:44:13.110Z,1001.02
2019-01-23T10:45:13.018Z,1000.98
2019-01-23T10:46:12.998Z,1001.05
2019-01-23T10:47:12.991Z,1001.05
2019-01-23T10:48:12.973Z,1001.01
2019-01-23T10:49:12.976Z,1001.03
2019-01-23T10:50:12.946Z,1001.04
2019-01-23T10:51:12.943Z,1001.03
2019-01-23T10:52:12.923Z,1000.99
2019-01-23T10:53:12.923Z,1001.03
2019-01-23T10:54:12.966Z,1001.03
2019-01-23T10:55:12.898Z,1001.03
2019-01-23T10:56:12.904Z,1001.01
2019-01-23T10:57:12.891Z,1001.04
2019-01-23T10:58:12.882Z,1001.00
2019-01-23T10:59:12.918Z,1001.01
2019-01-23T11:00:12.843Z,1001.02
2019-01-23T11:01:13.443Z,1001.01
2019-01-23T11:02:12.821Z,1001.03
2019-01-23T11:03:12.818Z,1001.02
2019-01-23T11:04:12.800Z,1001.08
2019-01-23T11:05:12.804Z,1001.07
2019-01-23T11:06:12.772Z,1001.07
2019-01-23T11:07:12.767Z,1001.07
2019-01-23T11:08:12.754Z,1001.05
2019-01-23T11:09:12.774Z,1001.01
2019-01-23T11:10:12.760Z,1001.02
2019-01-23T11:11:12.709Z,1001.10
2019-01-23T11:12:12.704Z,1001.05
2019-01-23T11:13:12.692Z,1001.05
2019-01-23T11:14:12.714Z,1001.02
2019-01-23T11:15:12.717Z,1001.06
2019-01-23T11:16:12.657Z,1001.08
2019-01-23T11:17:12.656Z,1001.04
2019-01-23T11:18:12.674Z,1001.02
2019-01-23T11:19:12.652Z,1001.04
2019-01-23T11:20:12.642Z,1001.06
2019-01-23T11:21:12.636Z,1001.02
2019-01-23T11:22:12.599Z,1001.02
2019-01-23T11:23:12.582Z,1001.05
2019-01-23T11:24:12.574Z,1001.01
2019-01-23T11:25:12.578Z,1001.01
2019-01-23T11:26:12.571Z,1001.01
2019-01-23T11:27:12.548Z,1001.03
2019-01-23T11:28:12.530Z,1001.06
2019-01-23T11:29:12.516Z,1001.05
2019-01-23T11:30:12.533Z,1001.07
2019-01-23T11:31:12.496Z,1001.07
2019-01-23T11:32:12.491Z,1001.16
2019-01-23T11:33:12.470Z,1001.07
2019-01-23T11:34:12.475Z,1001.08
2019-01-23T11:35:12.476Z,1001.13
2019-01-23T11:36:12.439Z,1001.14
2019-01-23T11:37:12.440Z,1001.10
2019-01-23T11:38:12.422Z,1001.06
2019-01-23T11:39:12.452Z,1001.09
2019-01-23T11:40:12.390Z,1001.10
2019-01-23T11:41:12.411Z,1001.07
2019-01-23T11:42:12.384Z,1001.13
2019-01-23T11:43:12.894Z,1001.07
2019-01-23T11:44:12.378Z,1001.09
2019-01-23T11:45:12.343Z,1001.04
2019-01-23T11:46:12.348Z,1001.09
2019-01-23T11:47:12.328Z,1001.06
2019-01-23T11:48:12.324Z,1001.08
2019-01-23T11:49:12.335Z,1001.12
2019-01-23T11:50:12.347Z,1001.04
2019-01-23T11:51:12.294Z,1001.11
2019-01-23T11:52:12.266Z,1001.13
2019-01-23T11:53:12.400Z,1001.13
2019-01-23T11:54:12.272Z,1001.11
2019-01-23T11:55:12.247Z,1001.19
2019-01-23T11:56:12.284Z,1001.04
2019-01-23T11:57:12.214Z,1001.14
2019-01-23T11:58:12.203Z,1001.10
2019-01-23T11:59:12.190Z,1001.09
2019-01-23T12:00:12.205Z,1001.11
2019-01-23T12:01:12.194Z,1001.11
2019-01-23T12:02:12.154Z,1001.07
2019-01-23T12:03:12.133Z,1001.11
2019-01-23T12:04:12.139Z,1001.11
2019-01-23T12:05:12.143Z,1001.10